Lake Leelanau, Michigan
Current Conditions -  °F | °C
As of 5:03 PM on Thursday 18 Dec 2014 (Local Time) from KTVC Reporting Station
Broken Clouds Broken Clouds  
Wind Chill: -7°   Ceiling: 1900
Heat Index: -2°   Visibility: 10mi
Dew Point: -6°   Wind: 8mph
Humidity: 75%   Direction: 350°N
Pressure: 30.2"   Gusts: NA
Location:  44.98°N, 85.71°W
Report Text: KTVC 182203Z 35007KT 10SM BKN019 BKN150 M02/M06 A3020 RMK AO2 T10221061
Loading
Personal Weather Stations






























Interactive Weather Map New forecast layout! Learn more

10-Day Weather Forecast

Advertisements
Track Severe Weather on mobile